Flight Track Log - Related Links

Times and Time Zones

All times are in EDT time to prevent confusion due to time zone crossing. See the SKW5631 flight status page for this flight to view local times or setup timezone preferences in your user account.

Time Position Orientation Groundspeed Altitude Reporting Facility
EDT Latitude Longitude Course Direction KTS MPH feet Rate Location/Type
Mon 03:50:59 PM 30.1336 -97.7844 279° West 302 348 6,200  Level Houston Center
Mon 03:52:00 PM 30.4117 -97.8738 276° West  Level FlightAware Approximate
Mon 03:52:02 PM 30.1986 -97.8319 328° Northwest 289 333 9,000  Level Houston Center
Mon 03:53:00 PM 30.4167 -97.9998 270° West  Level FlightAware Approximate
Mon 03:53:04 PM 30.2142 -97.9281 281° West 277 319 11,200  Level Houston Center
Mon 03:54:00 PM 30.4297 -98.1205 278° West  Level FlightAware Approximate
Mon 03:54:06 PM 30.2361 -98.0317 284° West 306 352 13,100  Level Houston Center
Mon 03:55:00 PM 30.4448 -98.2411 278° West  Level FlightAware Approximate
Mon 03:55:08 PM 30.2575 -98.1331 284° West 323 372 14,200  Level Houston Center
Mon 03:56:00 PM 30.4612 -98.3615 279° West  Level FlightAware Approximate
Mon 03:56:10 PM 30.2828 -98.2558 283° West 359 413 15,000  Level Houston Center
Mon 03:57:12 PM 30.3069 -98.3714 284° West 368 423 16,000 677 Climbing Houston Center
Mon 03:58:14 PM 30.3328 -98.4853 285° West 367 422 16,400 960 Climbing Houston Center
Mon 03:59:17 PM 30.3564 -98.6089 283° West 367 422 18,000 1,536 Climbing Houston Center
Mon 04:00:19 PM 30.3747 -98.7350 280° West 370 426 19,600 1,355 Climbing Houston Center
Mon 04:01:21 PM 30.3633 -98.8369 263° West 381 438 20,800 1,500 Climbing Houston Center
Mon 04:02:23 PM 30.3428 -98.9828 261° West 385 443 22,700 1,597 Climbing Houston Center
Mon 04:03:25 PM 30.3317 -99.1067 264° West 391 450 24,100 1,452 Climbing Houston Center
Mon 04:04:27 PM 30.3456 -99.2278 278° West 386 444 25,700 1,355 Climbing Houston Center
Mon 04:05:29 PM 30.3567 -99.3500 276° West 385 443 26,900 1,065 Climbing Houston Center
Mon 04:06:31 PM 30.3681 -99.4733 276° West 389 448 27,900 968 Climbing Houston Center
Mon 04:07:33 PM 30.3786 -99.6008 276° West 400 460 28,900 1,056 Climbing Houston Center
Mon 04:08:36 PM 30.3911 -99.7519 276° West 397 457 30,100 1,056 Climbing Houston Center
Mon 04:09:38 PM 30.4000 -99.8794 275° West 400 460 31,100 968 Climbing Houston Center
Mon 04:10:40 PM 30.4111 -100.0039 276° West 395 455 32,100 968 Climbing Houston Center
Mon 04:11:42 PM 30.4208 -100.1250 275° West 382 440 33,100 1,065 Climbing Houston Center
Mon 04:12:44 PM 30.4372 -100.2689 278° West 381 438 34,300 1,065 Climbing Houston Center
Mon 04:13:46 PM 30.4617 -100.3828 284° West 373 429 35,300 823 Climbing Houston Center
Mon 04:14:48 PM 30.4900 -100.4942 286° West 367 422 36,000 336 Climbing Houston Center
Mon 04:15:51 PM 30.5183 -100.6039 287° West 361 415 36,000  Level Houston Center
Mon 04:16:53 PM 30.5481 -100.7164 287° West 365 420 36,000  Level Houston Center
Mon 04:17:55 PM 30.5808 -100.8500 286° West 363 418 36,000  Level Houston Center
Mon 04:18:57 PM 30.6083 -100.9625 286° West 364 419 36,000 -48 Level Houston Center
Mon 04:19:59 PM 30.6356 -101.0736 286° West 361 415 35,900  Descending Houston Center
Mon 04:21:01 PM 30.6636 -101.1836 287° West 361 415 36,000 48 Climbing Houston Center
Mon 04:22:03 PM 30.6906 -101.2964 286° West 365 420 36,000  Level Houston Center
Mon 04:23:06 PM 30.7194 -101.4100 287° West 370 426 36,000  Level Houston Center
Mon 04:24:08 PM 30.7528 -101.5500 286° West 376 433 36,000  Level Houston Center
Mon 04:25:10 PM 30.7786 -101.6583 286° West 382 440 36,000  Level Houston Center
Mon 04:25:36 PM 30.7975 -101.7281 288° West 386 444 36,000  Level Albuquerque Center
Mon 04:26:38 PM 30.8261 -101.8483 286° West 386 444 36,000  Level Albuquerque Center
Mon 04:27:40 PM 30.8544 -101.9642 286° West 377 434 36,000  Level Albuquerque Center
Mon 04:28:42 PM 30.8817 -102.0797 285° West 372 428 36,000  Level Albuquerque Center
Mon 04:29:44 PM 30.9097 -102.1956 286° West 370 426 36,000  Level Albuquerque Center
Mon 04:30:46 PM 30.9378 -102.3122 286° West 371 427 36,000  Level Albuquerque Center
Mon 04:31:47 PM 30.9656 -102.4300 285° West 373 429 36,000  Level Albuquerque Center
Mon 04:32:49 PM 30.9936 -102.5500 285° West 378 435 36,000  Level Albuquerque Center
Mon 04:33:51 PM 31.0278 -102.6961 285° West 385 443 36,000  Level Albuquerque Center
Mon 04:34:53 PM 31.0561 -102.8183 285° West 389 448 36,000  Level Albuquerque Center
Mon 04:35:55 PM 31.0850 -102.9411 285° West 390 449 36,000  Level Albuquerque Center
Mon 04:36:56 PM 31.1139 -103.0642 285° West 392 451 36,000  Level Albuquerque Center
Mon 04:37:58 PM 31.1425 -103.1875 285° West 394 453 36,000  Level Albuquerque Center
Mon 04:39:00 PM 31.1711 -103.3106 285° West 394 453 36,000  Level Albuquerque Center
Mon 04:40:02 PM 31.1989 -103.4333 285° West 392 451 36,000  Level Albuquerque Center
Mon 04:41:04 PM 31.2264 -103.5553 285° West 391 450 36,000  Level Albuquerque Center
Mon 04:42:05 PM 31.2600 -103.7014 285° West 389 448 36,000  Level Albuquerque Center
Mon 04:43:07 PM 31.2856 -103.8169 285° West 386 444 36,000  Level Albuquerque Center
Mon 04:44:09 PM 31.3133 -103.9381 285° West 387 445 36,000  Level Albuquerque Center
Mon 04:45:11 PM 31.3406 -104.0597 285° West 388 447 36,000  Level Albuquerque Center
Mon 04:46:12 PM 31.3675 -104.1797 285° West 386 444 36,000  Level Albuquerque Center
Mon 04:47:14 PM 31.3947 -104.2994 285° West 384 442 36,000  Level Albuquerque Center
Mon 04:48:16 PM 31.4272 -104.4433 285° West 384 442 36,000  Level Albuquerque Center
Mon 04:49:18 PM 31.4533 -104.5653 284° West 388 447 36,000  Level Albuquerque Center
Mon 04:50:20 PM 31.4794 -104.6867 284° West 387 445 36,000  Level Albuquerque Center
Mon 04:51:21 PM 31.5072 -104.8103 285° West 392 451 36,000  Level Albuquerque Center
Mon 04:52:23 PM 31.5336 -104.9328 284° West 393 452 36,000  Level Albuquerque Center
Mon 04:53:25 PM 31.5664 -105.0814 285° West 394 453 36,000  Level Albuquerque Center
Mon 04:54:27 PM 31.5925 -105.2056 284° West 396 456 36,000  Level Albuquerque Center
Mon 04:55:28 PM 31.6189 -105.3314 284° West 398 458 36,000  Level Albuquerque Center
Mon 04:56:30 PM 31.6456 -105.4581 284° West 401 461 36,000  Level Albuquerque Center
Mon 04:57:32 PM 31.6722 -105.5839 284° West 400 460 36,000 -48 Level Albuquerque Center
Mon 04:58:34 PM 31.6983 -105.7106 284° West 401 461 35,900  Descending Albuquerque Center
Mon 04:59:36 PM 31.7303 -105.8628 284° West 400 460 36,000  Climbing Albuquerque Center
Mon 05:00:37 PM 31.7564 -105.9917 283° West 405 466 35,900 -49 Descending Albuquerque Center
Mon 05:01:39 PM 31.7828 -106.1178 284° West 400 460 35,900 48 Level Albuquerque Center
Mon 05:02:41 PM 31.8100 -106.2425 284° West 396 456 36,000  Climbing Albuquerque Center
Mon 05:03:43 PM 31.8250 -106.3686 278° West 393 452 35,900  Descending Albuquerque Center
Mon 05:04:44 PM 31.8308 -106.4969 273° West 395 455 36,000 49 Climbing Albuquerque Center
Mon 05:05:46 PM 31.8419 -106.6211 276° West 388 447 36,000  Level Albuquerque Center
Mon 05:06:48 PM 31.8536 -106.7706 275° West 382 440 36,000  Level Albuquerque Center
Mon 05:07:50 PM 31.8622 -106.8953 275° West 382 440 36,000  Level Albuquerque Center
Mon 05:08:52 PM 31.8714 -107.0203 275° West 382 440 36,000  Level Albuquerque Center
Mon 05:09:53 PM 31.8803 -107.1450 275° West 382 440 36,000  Level Albuquerque Center
Mon 05:10:55 PM 31.8883 -107.2711 274° West 385 443 36,000 -48 Level Albuquerque Center
Mon 05:11:57 PM 31.8961 -107.3961 274° West 383 441 35,900  Descending Albuquerque Center
Mon 05:12:58 PM 31.9053 -107.5256 275° West 384 442 36,000 49 Climbing Albuquerque Center
Mon 05:14:00 PM 31.9133 -107.6483 274° West 385 443 36,000  Level Albuquerque Center
Mon 05:15:02 PM 31.9225 -107.8014 274° West 388 447 36,000  Level Albuquerque Center
Mon 05:16:04 PM 31.9294 -107.9286 274° West 389 448 36,000  Level Albuquerque Center
Mon 05:17:05 PM 31.9389 -108.0592 275° West 394 453 36,000  Level Albuquerque Center
Mon 05:18:07 PM 31.9483 -108.1856 275° West 396 456 36,000  Level Albuquerque Center
Mon 05:19:09 PM 31.9564 -108.3144 274° West 398 458 36,000  Level Albuquerque Center
Mon 05:20:10 PM 31.9639 -108.4425 274° West 396 456 36,000  Level Albuquerque Center
Mon 05:21:12 PM 31.9736 -108.5983 274° West 399 459 36,000  Level Albuquerque Center
Mon 05:22:14 PM 31.9819 -108.7269 274° West 399 459 36,000 49 Level Albuquerque Center
Mon 05:23:15 PM 31.9894 -108.8567 274° West 400 460 36,100 341 Climbing Albuquerque Center
Mon 05:24:17 PM 31.9972 -108.9867 274° West 400 460 36,700 581 Climbing Albuquerque Center
Mon 05:25:19 PM 32.0047 -109.1147 274° West 397 457 37,300 581 Climbing Albuquerque Center
Mon 05:26:21 PM 32.0119 -109.2411 274° West 393 452 37,900 341 Climbing Albuquerque Center
Mon 05:27:22 PM 32.0192 -109.3669 274° West 389 448 38,000 49 Climbing Albuquerque Center
Mon 05:28:24 PM 32.0267 -109.5200 273° West 391 450 38,000  Level Albuquerque Center
Mon 05:29:26 PM 32.0336 -109.6519 274° West 401 461 38,000  Level Albuquerque Center
Mon 05:30:27 PM 32.0397 -109.7819 273° West 401 461 38,000  Level Albuquerque Center
Mon 05:31:29 PM 32.0469 -109.9117 274° West 401 461 38,000  Level Albuquerque Center
Mon 05:32:31 PM 32.0536 -110.0406 274° West 398 458 38,000  Level Albuquerque Center
Mon 05:33:33 PM 32.0594 -110.1700 273° West 398 458 38,000  Level Albuquerque Center
Mon 05:34:34 PM 32.0669 -110.3250 273° West 398 458 38,000  Level Albuquerque Center
Mon 05:35:36 PM 32.0781 -110.4583 276° West 406 467 38,000  Level Albuquerque Center
Mon 05:36:38 PM 32.0819 -110.5872 272° West 401 461 38,000  Level Albuquerque Center
Mon 05:37:40 PM 32.0883 -110.7236 273° West 399 459 38,000  Level Albuquerque Center
Mon 05:38:41 PM 32.0939 -110.8539 273° West 398 458 38,000  Level Albuquerque Center
Mon 05:39:43 PM 32.1272 -110.9753 288° West 393 452 38,000  Level Albuquerque Center
Mon 05:40:45 PM 32.1856 -111.0928 300° West 408 470 38,000  Level Albuquerque Center
Mon 05:41:47 PM 32.2442 -111.2094 301° West 412 474 38,000  Level Albuquerque Center
Mon 05:42:48 PM 32.3133 -111.3494 300° West 412 474 38,000  Level Albuquerque Center
Mon 05:43:50 PM 32.3717 -111.4681 300° West 414 476 38,000  Level Albuquerque Center
Mon 05:44:52 PM 32.4297 -111.5839 301° West 412 474 38,000  Level Albuquerque Center
Mon 05:45:54 PM 32.4881 -111.7019 300° West 413 475 38,000  Level Albuquerque Center
Mon 05:46:55 PM 32.5456 -111.8208 300° West 415 478 38,000  Level Albuquerque Center
Mon 05:47:57 PM 32.6044 -111.9392 301° West 415 478 38,000  Level Albuquerque Center
Mon 05:48:59 PM 32.6614 -112.0578 300° West 415 478 38,000  Level Albuquerque Center
Mon 05:50:01 PM 32.7183 -112.1764 300° West 414 476 38,000  Level Albuquerque Center
Mon 05:51:02 PM 32.7892 -112.3222 300° West 415 478 38,000  Level Albuquerque Center
Mon 05:52:04 PM 32.8464 -112.4408 300° West 415 478 38,000  Level Albuquerque Center
Mon 05:53:06 PM 32.9022 -112.5592 299° West 414 476 38,000  Level Albuquerque Center
Mon 05:54:08 PM 32.9614 -112.6769 301° West 416 479 38,000 -49 Level Albuquerque Center
Mon 05:55:09 PM 33.0381 -112.7814 311° West 418 481 37,900  Descending Albuquerque Center
Mon 05:56:11 PM 33.1169 -112.8853 312° West 424 488 38,000 48 Climbing Albuquerque Center
Mon 05:57:13 PM 33.2114 -113.0100 312° West 425 489 38,000  Level Albuquerque Center
Mon 05:58:15 PM 33.2897 -113.1139 312° West 424 488 38,000  Level Albuquerque Center
Mon 05:59:16 PM 33.3683 -113.2189 312° West 425 489 38,000  Level Albuquerque Center
Mon 06:00:18 PM 33.4456 -113.3239 311° West 423 487 38,000  Level Albuquerque Center
Mon 06:01:20 PM 33.5231 -113.4281 312° West 421 484 38,000  Level Albuquerque Center
Mon 06:02:22 PM 33.5886 -113.5425 305° West 422 486 38,000  Level Albuquerque Center
Mon 06:03:23 PM 33.6203 -113.6817 285° West 416 479 38,000  Level Albuquerque Center
Mon 06:04:25 PM 33.6425 -113.8158 281° West 411 473 38,000  Level Albuquerque Center
Mon 06:05:27 PM 33.6719 -113.9786 282° West 415 478 38,000  Level Albuquerque Center
Mon 06:06:28 PM 33.6961 -114.1125 282° West 413 475 38,000  Level Albuquerque Center
Mon 06:07:30 PM 33.7197 -114.2397 283° West 414 476 38,000  Level Albuquerque Center
Mon 06:08:32 PM 33.7425 -114.3753 281° West 416 479 38,000  Level Albuquerque Center
Mon 06:08:59 PM 33.7569 -114.4417 285° West 416 479 38,000  Level Los Angeles Center
Mon 06:10:01 PM 33.7856 -114.5753 284° West 415 478 38,000  Level Los Angeles Center
Mon 06:11:03 PM 33.8278 -114.7350 288° West 417 480 38,000  Level Los Angeles Center
Mon 06:12:05 PM 33.8625 -114.8686 287° West 421 484 38,000  Level Los Angeles Center
Mon 06:13:07 PM 33.8950 -115.0014 286° West 416 479 38,000  Level Los Angeles Center
Mon 06:14:09 PM 33.9294 -115.1342 287° West 417 480 38,000  Level Los Angeles Center
Mon 06:15:11 PM 33.9642 -115.2683 287° West 420 483 38,000  Level Los Angeles Center
Mon 06:16:14 PM 33.9972 -115.4017 287° West 419 482 38,000  Level Los Angeles Center
Mon 06:17:15 PM 34.0369 -115.5636 287° West 420 483 38,000  Level Los Angeles Center
Mon 06:18:17 PM 34.0711 -115.6978 287° West 421 484 38,000  Level Los Angeles Center
Mon 06:19:19 PM 34.1036 -115.8325 286° West 421 484 38,000  Level Los Angeles Center
Mon 06:20:22 PM 34.1353 -115.9556 287° West 420 483 38,000  Level Los Angeles Center
Mon 06:21:24 PM 34.1744 -116.1178 286° West 421 484 38,000  Level Los Angeles Center
Mon 06:22:26 PM 34.2072 -116.2542 286° West 422 486 38,000  Level Los Angeles Center
Mon 06:23:28 PM 34.2403 -116.3914 286° West 424 488 38,000  Level Los Angeles Center
Mon 06:24:30 PM 34.2739 -116.5278 287° West 425 489 38,000  Level Los Angeles Center
Mon 06:25:32 PM 34.3061 -116.6619 286° West 419 482 38,000  Level Los Angeles Center
Mon 06:26:34 PM 34.3389 -116.7994 286° West 423 487 38,000  Level Los Angeles Center
Mon 06:27:36 PM 34.3778 -116.9644 286° West 425 489 38,000  Level Los Angeles Center
Mon 06:28:50 PM 34.4106 -117.1022 286° West 425 489 38,000  Level Los Angeles Center
Mon 06:29:52 PM 34.4489 -117.2667 286° West 424 488 38,000  Level Los Angeles Center
Mon 06:30:54 PM 34.4806 -117.4053 286° West 426 490 38,000  Level Los Angeles Center
Mon 06:31:56 PM 34.5122 -117.5436 286° West 425 489 38,000  Level Los Angeles Center
Mon 06:32:58 PM 34.5439 -117.6817 286° West 426 490 38,000  Level Los Angeles Center
Mon 06:34:00 PM 34.5761 -117.8214 286° West 428 493 38,000  Level Los Angeles Center
Mon 06:35:02 PM 34.6139 -117.9869 286° West 426 490 38,000  Level Los Angeles Center
Mon 06:36:04 PM 34.6639 -118.1164 295° West 426 490 38,000  Level Los Angeles Center
Mon 06:37:06 PM 34.7419 -118.2256 311° West 427 491 38,000  Level Los Angeles Center
Mon 06:38:08 PM 34.8189 -118.3383 310° West 430 495 38,000  Level Los Angeles Center
Mon 06:39:10 PM 34.8950 -118.4481 310° West 427 491 38,000  Level Los Angeles Center
Mon 06:40:12 PM 34.9739 -118.5608 311° West 425 489 38,000  Level Los Angeles Center
Mon 06:41:14 PM 35.0403 -118.6783 305° West 428 493 38,000  Level Los Angeles Center
Mon 06:42:16 PM 35.1111 -118.8258 300° West 421 484 38,000  Level Los Angeles Center
Mon 06:43:17 PM 35.1703 -118.9514 300° West 427 491 38,000  Level Los Angeles Center
Mon 06:44:19 PM 35.2308 -119.0744 301° West 427 491 38,000  Level Los Angeles Center
Mon 06:45:21 PM 35.2794 -119.2056 294° West 429 494 38,000  Level Los Angeles Center
Mon 06:47:18 PM 35.3767 -119.4642 295° West 425 489 38,000  Level Oakland Center
Mon 06:48:19 PM 35.4267 -119.5953 295° West 426 490 38,000  Level Oakland Center
Mon 06:49:20 PM 35.4764 -119.7258 295° West 426 490 38,000  Level Oakland Center
Mon 06:50:21 PM 35.5264 -119.8564 295° West 426 490 38,000  Level Oakland Center
Mon 06:51:23 PM 35.5761 -119.9853 295° West 424 488 38,000  Level Oakland Center
Mon 06:52:24 PM 35.6253 -120.1158 295° West 425 489 38,000  Level Oakland Center
Mon 06:53:25 PM 35.6828 -120.2719 294° West 425 489 38,000  Level Oakland Center
Mon 06:54:26 PM 35.7317 -120.4022 295° West 426 490 38,000  Level Oakland Center
Mon 06:55:27 PM 35.7794 -120.5339 294° West 426 490 38,000  Level Oakland Center
Mon 06:56:28 PM 35.8297 -120.6653 295° West 427 491 38,000  Level Oakland Center
Mon 06:57:30 PM 35.9006 -120.7792 308° West 428 493 38,000  Level Oakland Center
Mon 06:58:31 PM 35.9806 -120.8900 312° West 433 498 38,000 -49 Level Oakland Center
Mon 06:59:32 PM 36.0597 -121.0003 312° West 430 495 37,900 -1,279 Descending Oakland Center
Mon 07:00:33 PM 36.1389 -121.1083 312° West 426 490 35,400 -2,683 Descending Oakland Center
Mon 07:01:35 PM 36.2294 -121.2356 311° West 412 474 32,400 -2,683 Descending Oakland Center
Mon 07:02:36 PM 36.3067 -121.3433 312° West 421 484 29,900 -2,459 Descending Oakland Center
Mon 07:03:37 PM 36.3869 -121.4575 311° West 435 501 27,400 -2,459 Descending Oakland Center
Mon 07:04:38 PM 36.4664 -121.5683 312° West 429 494 24,900 -1,721 Descending Oakland Center
Mon 07:05:39 PM 36.5431 -121.6797 311° West 426 490 23,900 -1,643 Descending Oakland Center
Mon 07:06:02 PM 36.5833 -121.7333 313° West 417 480 22,600 -2,747 Descending Northern Cal TRACON
Mon 07:07:02 PM 36.6500 -121.8333 310° West 390 449 20,100 -2,479 Descending Northern Cal TRACON
Mon 07:08:03 PM 36.7167 -121.9333 310° West 379 436 17,600 -2,400 Descending Northern Cal TRACON
Mon 07:09:02 PM 36.8167 -121.9833 338° Northwest 387 445 15,300 -2,436 Descending Northern Cal TRACON
Mon 07:09:44 PM 36.8811 -121.9981 350° North 380 437 13,500 -2,481 Descending Oakland Center
Mon 07:10:46 PM 36.9847 -122.0261 348° North 379 436 11,000 -1,707 Descending Oakland Center
Mon 07:11:47 PM 37.0775 -122.0514 348° North 333 383 10,000 -492 Descending Oakland Center
Mon 07:12:48 PM 37.1550 -122.0708 349° North 288 331 10,000 -393 Level Oakland Center
Mon 07:13:49 PM 37.2303 -122.0903 348° North 277 319 9,200 -1,279 Descending Oakland Center
Mon 07:14:50 PM 37.3022 -122.1100 348° North 266 306 7,400 -1,561 Descending Oakland Center
Mon 07:15:52 PM 37.3733 -122.1303 347° North 262 302 6,000 -1,122 Descending Oakland Center
Mon 07:16:53 PM 37.4367 -122.1450 350° North 241 277 5,100 -1,033 Descending Oakland Center
Mon 07:17:54 PM 37.5086 -122.1667 347° North 225 259 3,900 -1,328 Descending Oakland Center
Mon 07:18:55 PM 37.5550 -122.2250 315° West 235 270 2,400 -1,475 Descending Oakland Center

Login

Don't have an account? Register now (free) for customized features, flight alerts, and more!